Time;durP1;ratioP1;P1;durP2;ratioP2;P2;SDS_P1;SDS_P2;PMS_P1;PMS_P2;Temp;Humidity;BMP_temperature;BMP_pressure;BME280_temperature;BME280_humidity;BME280_pressure;Samples;Min_cycle;Max_cycle;Signal;HPM_P1;HPM_P2
2023/04/27 00:01:13;;;;;;;29.97;9.23;;;;;;;1.98;77.89;100207.81;4210255;28;20305;-66
2023/04/27 00:03:40;;;;;;;29.30;8.80;;;;;;;1.90;78.29;100205.66;4216967;28;20345;-65
2023/04/27 00:06:08;;;;;;;24.40;9.17;;;;;;;1.93;78.14;100209.09;4219377;28;21527;-65
2023/04/27 00:08:35;;;;;;;19.03;8.40;;;;;;;1.96;77.75;100204.41;4221120;28;20235;-66
2023/04/27 00:11:02;;;;;;;25.83;9.43;;;;;;;1.95;77.92;100207.16;4226977;28;22313;-65
2023/04/27 00:13:28;;;;;;;22.53;8.57;;;;;;;1.87;78.11;100205.84;4214851;28;20252;-67
2023/04/27 00:15:55;;;;;;;28.30;8.77;;;;;;;1.81;78.22;100203.56;4215869;28;20667;-65
2023/04/27 00:18:22;;;;;;;24.90;9.30;;;;;;;1.75;78.70;100214.63;4216911;28;20236;-65
2023/04/27 00:20:48;;;;;;;24.80;9.83;;;;;;;1.65;79.59;100201.00;4217344;28;20232;-63
2023/04/27 00:23:16;;;;;;;28.50;9.40;;;;;;;1.69;79.11;100207.00;4211409;28;20233;-66
2023/04/27 00:25:43;;;;;;;20.17;8.70;;;;;;;1.58;79.76;100213.00;4216546;28;20236;-65
2023/04/27 00:28:09;;;;;;;30.07;9.00;;;;;;;1.58;79.53;100213.84;4215571;28;20237;-66
2023/04/27 00:30:36;;;;;;;23.97;9.17;;;;;;;1.61;79.73;100211.97;4212186;28;23714;-67
2023/04/27 00:33:03;;;;;;;19.50;8.87;;;;;;;1.50;79.46;100213.47;4210940;28;20231;-65
2023/04/27 00:35:31;;;;;;;24.23;9.57;;;;;;;1.48;79.71;100209.19;4218822;28;20246;-67
2023/04/27 00:37:58;;;;;;;29.63;10.13;;;;;;;1.47;79.96;100216.34;4215957;28;20244;-68
2023/04/27 00:40:24;;;;;;;22.57;9.33;;;;;;;1.50;80.14;100215.28;4208804;28;21840;-68
2023/04/27 00:42:51;;;;;;;25.63;8.77;;;;;;;1.52;79.59;100219.59;4216565;28;20525;-65
2023/04/27 00:45:17;;;;;;;25.83;9.70;;;;;;;1.50;80.06;100215.28;4223724;28;25017;-65
2023/04/27 00:47:44;;;;;;;19.87;8.60;;;;;;;1.53;80.03;100217.75;4209270;28;20312;-65
2023/04/27 00:50:11;;;;;;;26.77;9.83;;;;;;;1.44;79.92;100227.19;4202125;28;20295;-68
2023/04/27 00:52:38;;;;;;;24.30;9.13;;;;;;;1.44;80.37;100219.19;4209211;28;20237;-66
2023/04/27 00:55:06;;;;;;;26.17;8.97;;;;;;;1.46;80.00;100217.28;4212580;28;20240;-69
2023/04/27 00:57:33;;;;;;;30.77;9.87;;;;;;;1.37;80.36;100218.69;4209139;28;21745;-66
2023/04/27 00:59:59;;;;;;;26.00;9.47;;;;;;;1.32;80.53;100225.28;4216737;28;22172;-65
2023/04/27 01:02:27;;;;;;;24.13;9.30;;;;;;;1.26;80.90;100231.84;4229981;28;20316;-66
2023/04/27 01:04:54;;;;;;;29.57;10.13;;;;;;;1.38;80.48;100231.09;4238332;28;20231;-64
2023/04/27 01:07:24;;;;;;;29.53;9.47;;;;;;;1.47;80.12;100223.47;4227101;28;20253;-66
2023/04/27 01:09:51;;;;;;;23.43;9.97;;;;;;;1.36;80.30;100229.47;4238563;28;20270;-64
2023/04/27 01:12:18;;;;;;;22.90;9.27;;;;;;;1.34;80.42;100226.91;4247704;28;21351;-66
2023/04/27 01:14:45;;;;;;;24.60;9.93;;;;;;;1.27;80.68;100239.75;4232019;28;20290;-67
2023/04/27 01:17:12;;;;;;;30.97;10.23;;;;;;;1.33;80.62;100246.53;4224404;28;20243;-66
2023/04/27 01:19:39;;;;;;;30.90;10.83;;;;;;;1.26;80.78;100242.50;4218568;28;23581;-65
2023/04/27 01:22:06;;;;;;;26.40;10.67;;;;;;;1.23;80.94;100232.00;4220198;28;20261;-65
2023/04/27 01:24:33;;;;;;;24.53;10.63;;;;;;;1.35;80.80;100241.09;4222243;28;20244;-68
2023/04/27 01:27:00;;;;;;;24.70;10.93;;;;;;;1.25;80.61;100241.63;4210718;28;20333;-67
2023/04/27 01:29:27;;;;;;;26.10;10.00;;;;;;;1.19;81.16;100236.69;4205376;28;22050;-68
2023/04/27 01:31:53;;;;;;;35.83;11.10;;;;;;;1.30;80.41;100243.19;4230226;28;22308;-68
2023/04/27 01:34:20;;;;;;;33.50;11.20;;;;;;;1.23;80.64;100237.34;4209675;28;20231;-67
2023/04/27 01:36:46;;;;;;;30.83;11.33;;;;;;;1.27;80.54;100237.06;4223293;28;21270;-67
2023/04/27 01:39:13;;;;;;;30.80;11.57;;;;;;;1.27;80.73;100237.06;4227064;28;20227;-66
2023/04/27 01:41:40;;;;;;;31.10;12.30;;;;;;;1.15;80.70;100237.81;4239349;28;21187;-65
2023/04/27 01:44:07;;;;;;;27.77;11.40;;;;;;;1.07;81.46;100230.28;4219843;28;20227;-66
2023/04/27 01:46:33;;;;;;;40.90;12.63;;;;;;;1.07;81.55;100238.25;4219132;28;20304;-65
2023/04/27 01:49:00;;;;;;;35.73;12.37;;;;;;;1.15;81.44;100242.28;4240367;28;20235;-67
2023/04/27 01:51:26;;;;;;;45.13;12.53;;;;;;;1.14;81.36;100245.88;4222540;28;20241;-66
2023/04/27 01:53:53;;;;;;;31.47;11.00;;;;;;;1.22;81.21;100241.84;4223524;28;20237;-67
2023/04/27 01:56:19;;;;;;;30.83;12.03;;;;;;;1.20;81.18;100249.06;4233744;28;20372;-66
2023/04/27 01:58:46;;;;;;;27.63;11.77;;;;;;;1.25;80.74;100252.28;4234765;28;21082;-64
2023/04/27 02:01:12;;;;;;;36.43;13.43;;;;;;;1.32;80.46;100252.81;4211841;28;20235;-66
2023/04/27 02:03:39;;;;;;;28.53;13.00;;;;;;;1.31;80.42;100252.91;4234409;28;20344;-65
2023/04/27 02:06:06;;;;;;;33.83;13.37;;;;;;;1.15;80.92;100247.63;4259837;28;20288;-67
2023/04/27 02:08:33;;;;;;;30.43;12.90;;;;;;;1.18;80.96;100252.78;4239017;28;22302;-65
2023/04/27 02:11:00;;;;;;;35.97;12.63;;;;;;;1.11;81.02;100252.28;4223618;28;20251;-66
2023/04/27 02:13:26;;;;;;;24.93;11.90;;;;;;;1.21;80.92;100250.78;4225996;28;21333;-67
2023/04/27 02:15:54;;;;;;;35.13;13.00;;;;;;;1.27;80.63;100244.22;4235740;28;20311;-65
2023/04/27 02:18:21;;;;;;;35.53;13.20;;;;;;;1.43;80.02;100254.81;4222475;28;20232;-67
2023/04/27 02:20:47;;;;;;;30.47;11.83;;;;;;;1.41;80.03;100240.72;4240537;28;20255;-65
2023/04/27 02:23:14;;;;;;;30.27;12.50;;;;;;;1.47;80.08;100237.69;4238675;28;25746;-66
2023/04/27 02:25:45;;;;;;;35.80;12.53;;;;;;;1.50;79.77;100241.97;4202668;28;20231;-67
2023/04/27 02:28:13;;;;;;;28.73;11.73;;;;;;;1.53;79.71;100242.63;4223212;28;21777;-69
2023/04/27 02:30:39;;;;;;;31.13;12.60;;;;;;;1.60;79.44;100244.94;4221318;28;20659;-66
2023/04/27 02:33:06;;;;;;;35.33;13.43;;;;;;;1.58;79.12;100242.38;4235341;28;20538;-66
2023/04/27 02:35:33;;;;;;;33.93;12.27;;;;;;;1.52;79.35;100240.03;4213640;28;20235;-65
2023/04/27 02:37:59;;;;;;;31.77;11.43;;;;;;;1.41;79.38;100240.72;4233103;28;20243;-65
2023/04/27 02:40:26;;;;;;;29.30;11.80;;;;;;;1.49;79.51;100245.59;4236607;28;20710;-65
2023/04/27 02:42:52;;;;;;;23.53;11.67;;;;;;;1.46;79.57;100243.09;4226851;28;22032;-66
2023/04/27 02:45:19;;;;;;;29.37;11.33;;;;;;;1.52;79.13;100259.59;4236627;28;22080;-64
2023/04/27 02:47:45;;;;;;;28.00;12.37;;;;;;;1.32;79.50;100252.81;4226252;28;26364;-65
2023/04/27 02:50:12;;;;;;;25.93;11.03;;;;;;;1.18;80.66;100258.94;4222218;28;20232;-64
2023/04/27 02:52:39;;;;;;;30.50;11.87;;;;;;;1.04;81.46;100257.13;4231642;28;20246;-65
2023/04/27 02:55:06;;;;;;;28.23;12.10;;;;;;;1.20;81.07;100259.72;4232625;28;20258;-64
2023/04/27 02:57:32;;;;;;;31.03;11.53;;;;;;;1.29;80.65;100258.31;4221459;28;20401;-65
2023/04/27 02:59:59;;;;;;;31.27;11.93;;;;;;;1.32;80.36;100262.63;4211515;28;20233;-65
2023/04/27 03:02:25;;;;;;;26.17;11.23;;;;;;;1.31;80.06;100256.41;4219653;28;20298;-65
2023/04/27 03:04:56;;;;;;;32.00;11.10;;;;;;;1.36;79.92;100256.97;4220808;28;22992;-65
2023/04/27 03:07:22;;;;;;;32.43;10.83;;;;;;;1.42;79.72;100259.31;4230150;28;21132;-65
2023/04/27 03:09:49;;;;;;;34.80;13.33;;;;;;;1.51;79.37;100259.69;4242122;28;20940;-64
2023/04/27 03:12:15;;;;;;;24.30;10.60;;;;;;;1.44;79.25;100261.88;4239218;28;20314;-66
2023/04/27 03:14:42;;;;;;;27.47;11.37;;;;;;;1.39;79.75;100263.97;4228990;28;21456;-66
2023/04/27 03:17:09;;;;;;;27.83;10.50;;;;;;;1.36;80.14;100264.13;4229633;28;20587;-66
2023/04/27 03:19:35;;;;;;;28.07;10.93;;;;;;;1.34;79.53;100266.03;4240777;28;20409;-64
2023/04/27 03:22:02;;;;;;;28.13;11.20;;;;;;;1.42;79.31;100250.44;4233569;28;20298;-65
2023/04/27 03:24:29;;;;;;;21.83;10.57;;;;;;;1.49;79.65;100264.25;4237223;28;20419;-67
2023/04/27 03:26:56;;;;;;;25.27;10.50;;;;;;;1.52;78.95;100250.72;4223438;28;20240;-64
2023/04/27 03:29:22;;;;;;;29.83;11.27;;;;;;;1.73;78.33;100261.88;4237974;28;20626;-66
2023/04/27 03:31:49;;;;;;;34.60;11.30;;;;;;;1.58;78.71;100263.72;4229132;28;20286;-64
2023/04/27 03:34:16;;;;;;;27.70;11.57;;;;;;;1.67;78.73;100262.28;4235901;28;21315;-67
2023/04/27 03:36:43;;;;;;;25.10;10.77;;;;;;;1.76;78.06;100256.38;4245296;28;20294;-65
2023/04/27 03:39:09;;;;;;;31.67;11.20;;;;;;;1.90;77.22;100260.81;4230603;28;21625;-65
2023/04/27 03:41:36;;;;;;;29.87;11.30;;;;;;;1.78;78.04;100259.78;4236923;28;20302;-66
2023/04/27 03:44:03;;;;;;;26.80;10.67;;;;;;;1.88;77.47;100266.28;4234188;28;21283;-65
2023/04/27 03:46:29;;;;;;;28.53;11.03;;;;;;;1.77;78.08;100271.44;4222883;28;20660;-65
2023/04/27 03:48:56;;;;;;;27.00;10.33;;;;;;;1.75;78.15;100278.66;4230458;28;20242;-65
2023/04/27 03:51:23;;;;;;;31.87;11.77;;;;;;;1.46;79.57;100281.31;4215370;28;20250;-64
2023/04/27 03:53:49;;;;;;;32.27;12.20;;;;;;;1.63;79.19;100277.63;4222429;28;20239;-66
2023/04/27 03:56:16;;;;;;;30.63;11.30;;;;;;;1.61;79.11;100292.00;4220527;28;20234;-66
2023/04/27 03:58:43;;;;;;;34.37;12.07;;;;;;;1.34;80.09;100301.59;4234783;28;20309;-66
2023/04/27 04:01:10;;;;;;;33.83;11.50;;;;;;;1.21;81.04;100308.59;4238124;28;20234;-65
2023/04/27 04:03:36;;;;;;;26.83;11.90;;;;;;;1.09;81.64;100303.03;4225722;28;20285;-65
2023/04/27 04:06:03;;;;;;;30.87;12.00;;;;;;;1.07;81.71;100314.72;4224330;28;20251;-65
2023/04/27 04:08:31;;;;;;;28.67;12.27;;;;;;;1.01;82.04;100307.09;4226614;28;22566;-65
2023/04/27 04:10:58;;;;;;;28.50;11.30;;;;;;;1.06;81.42;100303.19;4228628;28;22335;-66
2023/04/27 04:13:25;;;;;;;34.20;12.43;;;;;;;1.13;81.72;100298.38;4238597;28;20231;-68
2023/04/27 04:16:02;;;;;;;31.87;11.83;;;;;;;1.27;81.35;100298.41;4232511;28;20302;-67
2023/04/27 04:18:29;;;;;;;26.03;11.23;;;;;;;1.45;80.82;100306.28;4224701;28;20226;-66
2023/04/27 04:20:56;;;;;;;28.73;10.87;;;;;;;1.45;80.56;100308.06;4230877;28;21101;-65
2023/04/27 04:23:23;;;;;;;30.83;10.73;;;;;;;1.43;80.26;100305.50;4250398;28;21855;-67
2023/04/27 04:25:49;;;;;;;25.23;10.63;;;;;;;1.45;80.53;100310.72;4226472;28;23031;-66
2023/04/27 04:28:16;;;;;;;39.60;11.83;;;;;;;1.52;79.94;100296.06;4217988;28;20244;-66
2023/04/27 04:30:43;;;;;;;33.57;11.40;;;;;;;1.88;79.46;100310.81;4231752;28;20312;-66
2023/04/27 04:33:09;;;;;;;32.87;11.33;;;;;;;1.95;78.93;100305.94;4230129;28;20301;-66
2023/04/27 04:35:40;;;;;;;33.70;11.60;;;;;;;1.96;79.41;100310.31;4221385;28;25448;-67
2023/04/27 04:38:07;;;;;;;29.33;11.47;;;;;;;1.91;78.95;100302.59;4234526;28;20310;-66
2023/04/27 04:40:34;;;;;;;28.07;9.83;;;;;;;2.27;77.88;100309.25;4232555;28;21869;-67
2023/04/27 04:43:00;;;;;;;31.37;11.17;;;;;;;2.44;76.54;100316.22;4231716;28;21430;-67
2023/04/27 04:45:27;;;;;;;31.47;11.07;;;;;;;2.31;77.14;100310.78;4223078;28;22380;-65
2023/04/27 04:47:54;;;;;;;24.57;9.93;;;;;;;2.48;77.04;100315.03;4234861;28;20238;-68
2023/04/27 04:50:22;;;;;;;21.97;10.07;;;;;;;2.38;76.92;100319.25;4220566;28;20425;-68
2023/04/27 04:52:49;;;;;;;27.37;10.17;;;;;;;2.47;76.60;100321.34;4221123;28;20364;-68
2023/04/27 04:55:16;;;;;;;32.37;10.60;;;;;;;2.48;77.31;100323.06;4230568;28;20229;-68
2023/04/27 04:57:43;;;;;;;27.53;9.77;;;;;;;2.35;76.73;100322.13;4235164;28;23650;-67
2023/04/27 05:00:11;;;;;;;26.03;9.97;;;;;;;2.45;76.73;100320.59;4226953;28;20332;-69
2023/04/27 05:02:39;;;;;;;24.40;9.13;;;;;;;2.58;76.70;100322.47;4233996;28;20308;-69
2023/04/27 05:05:06;;;;;;;28.23;10.33;;;;;;;2.77;76.38;100327.47;4221388;28;20232;-67
2023/04/27 05:07:33;;;;;;;28.60;9.83;;;;;;;2.84;75.87;100331.47;4237580;28;20235;-68
2023/04/27 05:10:00;;;;;;;23.90;9.47;;;;;;;2.85;76.31;100333.19;4201834;28;20271;-69
2023/04/27 05:12:27;;;;;;;25.10;9.27;;;;;;;2.88;75.54;100337.47;4240468;28;20307;-69
2023/04/27 05:14:53;;;;;;;32.13;10.67;;;;;;;2.83;75.89;100329.75;4237820;28;20232;-68
2023/04/27 05:17:20;;;;;;;25.43;9.63;;;;;;;2.79;75.45;100330.94;4232643;28;20246;-69
2023/04/27 05:19:46;;;;;;;24.13;9.60;;;;;;;3.05;75.02;100344.38;4232616;28;20238;-70
2023/04/27 05:22:13;;;;;;;30.67;9.63;;;;;;;3.16;74.55;100344.53;4231259;28;20336;-69
2023/04/27 05:24:40;;;;;;;21.57;9.50;;;;;;;3.05;74.42;100345.25;4230660;28;20633;-67
2023/04/27 05:27:06;;;;;;;29.73;9.63;;;;;;;3.19;74.75;100341.66;4237799;28;23409;-68
2023/04/27 05:29:33;;;;;;;25.00;9.67;;;;;;;3.57;73.49;100345.38;4237827;28;21707;-69
2023/04/27 05:31:59;;;;;;;22.67;8.67;;;;;;;3.49;73.06;100346.78;4222586;28;20251;-67
2023/04/27 05:34:26;;;;;;;24.53;10.00;;;;;;;3.58;72.91;100357.81;4235258;28;21847;-69
2023/04/27 05:36:53;;;;;;;19.97;9.00;;;;;;;3.59;72.86;100347.00;4224971;28;21668;-70
2023/04/27 05:39:19;;;;;;;24.97;9.23;;;;;;;3.67;72.91;100340.25;4223583;28;20605;-69
2023/04/27 05:41:46;;;;;;;21.77;9.37;;;;;;;3.79;72.55;100345.63;4231542;28;20308;-71
2023/04/27 05:44:12;;;;;;;20.77;8.80;;;;;;;3.75;72.73;100351.28;4225770;28;22971;-69
2023/04/27 05:46:39;;;;;;;24.70;10.23;;;;;;;3.78;73.60;100348.38;4224476;28;20247;-68
2023/04/27 05:49:05;;;;;;;23.40;10.60;;;;;;;3.95;73.02;100349.91;4227861;28;20231;-68
2023/04/27 05:51:32;;;;;;;22.80;9.43;;;;;;;4.25;71.65;100351.41;4242687;28;20302;-69
2023/04/27 05:54:00;;;;;;;23.00;8.60;;;;;;;4.20;71.55;100342.81;4243417;28;20370;-69
2023/04/27 05:56:27;;;;;;;29.43;10.37;;;;;;;4.23;71.62;100346.13;4226513;28;20550;-68
2023/04/27 05:58:54;;;;;;;23.83;9.20;;;;;;;4.36;70.74;100345.28;4251589;28;20313;-67
2023/04/27 06:01:20;;;;;;;20.43;10.00;;;;;;;4.64;69.92;100352.19;4238774;28;20933;-69
2023/04/27 06:03:47;;;;;;;27.53;9.50;;;;;;;4.50;70.42;100353.19;4231606;28;20244;-68
2023/04/27 06:06:14;;;;;;;27.37;9.23;;;;;;;4.88;69.41;100346.88;4263326;28;20281;-69
2023/04/27 06:08:41;;;;;;;25.23;9.93;;;;;;;5.21;68.74;100353.34;4237893;28;21148;-68
2023/04/27 06:11:07;;;;;;;24.10;8.40;;;;;;;6.87;63.29;100363.91;4250715;28;20328;-67
2023/04/27 06:13:34;;;;;;;20.47;8.47;;;;;;;7.08;61.94;100358.56;4220913;28;20241;-69
2023/04/27 06:16:00;;;;;;;22.20;8.73;;;;;;;7.19;61.30;100361.25;4257170;28;20231;-68
2023/04/27 06:18:27;;;;;;;20.97;8.07;;;;;;;8.77;57.42;100352.25;4235225;28;20231;-67
2023/04/27 06:21:00;;;;;;;24.03;9.33;;;;;;;9.88;53.07;100361.03;4247050;28;20254;-70
2023/04/27 06:23:27;;;;;;;23.50;7.93;;;;;;;10.55;51.46;100350.16;4252398;28;20241;-70
2023/04/27 06:25:54;;;;;;;19.37;8.10;;;;;;;10.99;50.11;100356.75;4231062;28;20714;-68
2023/04/27 06:28:21;;;;;;;21.97;8.40;;;;;;;10.74;50.60;100353.75;4259382;28;20389;-69
2023/04/27 06:30:48;;;;;;;20.13;8.17;;;;;;;12.34;47.69;100363.00;4295509;28;20244;-70
2023/04/27 06:33:15;;;;;;;21.27;8.60;;;;;;;13.04;46.36;100359.25;4271297;28;20235;-68
2023/04/27 06:35:42;;;;;;;17.63;7.73;;;;;;;13.93;43.94;100359.50;4256637;28;20232;-69
2023/04/27 06:38:12;;;;;;;19.10;7.27;;;;;;;15.42;39.84;100342.63;4234669;28;20591;-69
2023/04/27 06:40:39;;;;;;;17.63;8.03;;;;;;;11.88;46.85;100352.34;4232438;28;21484;-69
2023/04/27 06:43:05;;;;;;;18.30;8.30;;;;;;;11.34;48.89;100361.38;4312429;28;20306;-70
2023/04/27 06:45:32;;;;;;;19.03;7.87;;;;;;;12.03;46.66;100364.38;4245179;28;21645;-68
2023/04/27 06:47:59;;;;;;;23.10;9.00;;;;;;;11.08;49.30;100367.53;4251583;28;20235;-68
2023/04/27 06:50:26;;;;;;;19.70;7.53;;;;;;;11.00;49.41;100367.44;4223463;28;20431;-69
2023/04/27 06:52:53;;;;;;;20.70;7.97;;;;;;;12.10;47.31;100372.69;4219100;28;21816;-68
2023/04/27 06:55:19;;;;;;;16.97;7.30;;;;;;;13.46;44.98;100366.50;4238674;28;20583;-70
2023/04/27 06:57:46;;;;;;;17.87;8.40;;;;;;;11.43;48.41;100372.31;4230413;28;20604;-67
2023/04/27 07:00:13;;;;;;;16.00;7.50;;;;;;;13.94;43.32;100371.28;4225569;28;20351;-66
2023/04/27 07:02:40;;;;;;;18.77;8.03;;;;;;;14.31;43.19;100371.75;4246999;28;20262;-67
2023/04/27 07:05:07;;;;;;;17.90;7.87;;;;;;;13.81;43.08;100360.06;4244485;28;20337;-67
2023/04/27 07:07:33;;;;;;;17.53;7.80;;;;;;;14.12;43.01;100362.91;4237260;28;20235;-67
2023/04/27 07:10:00;;;;;;;19.33;7.33;;;;;;;17.47;37.51;100364.31;4226882;28;20342;-67
2023/04/27 07:12:26;;;;;;;17.23;7.93;;;;;;;15.69;38.42;100360.31;4231168;28;20390;-68
2023/04/27 07:14:53;;;;;;;17.80;7.97;;;;;;;15.57;39.60;100369.94;4228715;28;20238;-66
2023/04/27 07:17:20;;;;;;;21.77;8.57;;;;;;;14.21;42.34;100363.75;4221166;28;20341;-67
2023/04/27 07:19:47;;;;;;;17.37;7.23;;;;;;;16.81;37.66;100368.78;4238396;28;20251;-68
2023/04/27 07:22:14;;;;;;;17.10;8.03;;;;;;;18.00;35.18;100363.97;4230812;28;20239;-65
2023/04/27 07:24:41;;;;;;;17.20;7.60;;;;;;;15.49;40.16;100379.06;4226774;28;20594;-67
2023/04/27 07:27:09;;;;;;;15.70;7.20;;;;;;;15.76;39.67;100376.81;4233730;28;20237;-67
2023/04/27 07:29:36;;;;;;;18.20;7.63;;;;;;;15.93;39.13;100377.56;4234746;28;21778;-69
2023/04/27 07:32:06;;;;;;;13.73;7.00;;;;;;;14.91;40.11;100373.09;4225354;28;20227;-68
2023/04/27 07:34:34;;;;;;;15.23;6.87;;;;;;;13.93;42.47;100381.28;4229283;28;20253;-67
2023/04/27 07:37:18;;;;;;;18.73;6.37;;;;;;;13.82;40.49;100383.53;4263099;28;20241;-68
2023/04/27 07:39:46;;;;;;;16.23;6.50;;;;;;;16.15;36.79;100378.53;4243880;28;20248;-68
2023/04/27 07:42:12;;;;;;;18.17;6.03;;;;;;;16.41;36.94;100377.28;4253736;28;20336;-68
2023/04/27 07:44:39;;;;;;;9.97;6.07;;;;;;;17.54;33.92;100368.78;4236110;28;20446;-67
2023/04/27 07:47:06;;;;;;;17.10;6.60;;;;;;;13.63;40.11;100371.94;4257170;28;20308;-68
2023/04/27 07:49:34;;;;;;;14.13;7.30;;;;;;;14.51;39.57;100378.50;4271777;28;20232;-68
2023/04/27 07:52:01;;;;;;;15.87;6.63;;;;;;;13.94;42.17;100377.56;4233038;28;20513;-67
2023/04/27 07:54:28;;;;;;;13.23;6.30;;;;;;;13.59;41.76;100376.88;4264454;28;25585;-69
2023/04/27 07:56:56;;;;;;;13.57;6.30;;;;;;;13.32;41.33;100370.72;4234903;28;20300;-68
2023/04/27 07:59:22;;;;;;;16.17;6.23;;;;;;;13.35;42.42;100371.38;4252663;28;20342;-69
2023/04/27 08:01:49;;;;;;;18.97;7.13;;;;;;;12.76;44.30;100383.94;4249679;28;22306;-67
2023/04/27 08:04:15;;;;;;;14.30;7.13;;;;;;;12.24;46.34;100384.84;4234508;28;20527;-71
2023/04/27 08:06:42;;;;;;;16.37;6.63;;;;;;;13.28;43.57;100384.78;4255018;28;20269;-65
2023/04/27 08:09:11;;;;;;;16.93;6.63;;;;;;;13.15;43.31;100383.38;4251734;28;20401;-68
2023/04/27 08:11:38;;;;;;;15.57;7.00;;;;;;;13.03;43.51;100381.16;4244669;28;20307;-67
2023/04/27 08:14:05;;;;;;;21.50;7.23;;;;;;;13.35;44.21;100379.53;4220212;28;21136;-69
2023/04/27 08:16:32;;;;;;;14.07;6.63;;;;;;;13.87;42.00;100376.53;4253879;28;20248;-66
2023/04/27 08:19:00;;;;;;;22.73;7.80;;;;;;;13.91;42.07;100382.47;4231849;28;21390;-67
2023/04/27 08:21:27;;;;;;;15.90;6.57;;;;;;;13.09;43.29;100385.94;4242758;28;20236;-68
2023/04/27 08:23:54;;;;;;;20.10;7.37;;;;;;;12.28;44.90;100383.50;4262697;28;21534;-72
2023/04/27 08:26:21;;;;;;;13.30;6.27;;;;;;;12.34;45.38;100382.03;4231621;28;20240;-67
2023/04/27 08:28:51;;;;;;;15.90;6.50;;;;;;;12.22;45.75;100380.59;4255046;28;22949;-70
2023/04/27 08:31:17;;;;;;;15.30;6.67;;;;;;;12.15;45.89;100377.66;4272929;28;20235;-68
2023/04/27 08:33:44;;;;;;;15.63;6.70;;;;;;;11.75;46.96;100377.16;4260141;28;20243;-66
2023/04/27 08:36:11;;;;;;;13.40;5.90;;;;;;;12.49;46.07;100385.84;4237575;28;20239;-67
2023/04/27 08:38:38;;;;;;;12.17;6.70;;;;;;;13.36;43.43;100373.06;4226501;28;20234;-66
2023/04/27 08:41:04;;;;;;;17.03;6.87;;;;;;;12.39;44.56;100376.94;4223419;28;20315;-66
2023/04/27 08:43:50;;;;;;;14.70;4.77;;;;;;;11.90;44.95;100382.84;4229740;28;20235;-66
2023/04/27 08:46:25;;;;;;;13.90;4.83;;;;;;;11.46;45.82;100374.69;4223555;28;22065;-67
2023/04/27 08:48:53;;;;;;;8.73;4.47;;;;;;;11.06;47.28;100372.28;4223381;28;20799;-66
2023/04/27 08:51:20;;;;;;;8.23;3.67;;;;;;;11.45;45.34;100373.84;4218171;28;20254;-66
2023/04/27 08:53:51;;;;;;;11.73;4.33;;;;;;;12.16;43.57;100371.22;4230098;28;20231;-67
2023/04/27 08:56:19;;;;;;;11.17;4.30;;;;;;;11.71;45.05;100367.63;4235303;28;20401;-66
2023/04/27 08:58:45;;;;;;;15.30;3.60;;;;;;;10.81;45.78;100370.28;4234487;28;20251;-67
2023/04/27 09:01:12;;;;;;;15.97;3.97;;;;;;;10.44;46.60;100378.28;4230981;28;23156;-66
2023/04/27 09:03:38;;;;;;;12.53;4.23;;;;;;;9.98;47.41;100366.41;4225943;28;20616;-65
2023/04/27 09:06:06;;;;;;;9.17;3.50;;;;;;;9.69;48.90;100372.72;4225534;28;20299;-67
2023/04/27 09:08:50;;;;;;;7.83;3.40;;;;;;;9.54;48.63;100379.53;4220864;28;20231;-68
2023/04/27 09:11:31;;;;;;;19.47;4.63;;;;;;;9.13;50.39;100391.28;4234212;28;20350;-67
2023/04/27 09:13:59;;;;;;;15.77;4.30;;;;;;;8.78;52.52;100386.38;4237969;28;20238;-65
2023/04/27 09:16:28;;;;;;;8.10;3.87;;;;;;;8.67;53.40;100388.19;4222202;28;20232;-65
2023/04/27 09:18:56;;;;;;;13.27;4.50;;;;;;;8.48;54.58;100404.28;4229903;28;20235;-71
2023/04/27 09:21:30;;;;;;;9.47;4.70;;;;;;;8.50;55.26;100396.91;4245202;28;20966;-67
2023/04/27 09:23:56;;;;;;;7.50;4.40;;;;;;;8.74;54.47;100395.75;4232374;28;21123;-71
2023/04/27 09:26:25;;;;;;;10.67;4.47;;;;;;;8.96;53.67;100395.53;4223512;28;21163;-67
2023/04/27 09:28:55;;;;;;;10.97;4.70;;;;;;;8.90;54.51;100382.59;4224109;28;20250;-69
2023/04/27 09:31:32;;;;;;;12.03;4.60;;;;;;;8.77;53.63;100382.81;4226457;28;21083;-66
2023/04/27 09:33:59;;;;;;;13.73;4.53;;;;;;;8.99;52.66;100386.28;4224925;28;21074;-67
2023/04/27 09:36:26;;;;;;;11.97;4.33;;;;;;;9.09;53.19;100381.78;4271613;28;22221;-66
2023/04/27 09:38:53;;;;;;;8.57;4.10;;;;;;;9.11;52.99;100382.47;4235566;28;22792;-67
2023/04/27 09:41:19;;;;;;;9.13;3.90;;;;;;;9.37;50.76;100379.25;4220114;28;20291;-67
2023/04/27 09:43:46;;;;;;;13.27;4.50;;;;;;;9.51;50.21;100377.97;4239957;28;20242;-67
2023/04/27 09:46:13;;;;;;;13.53;4.70;;;;;;;9.01;51.26;100382.47;4234404;28;20238;-66
2023/04/27 09:48:40;;;;;;;10.53;3.63;;;;;;;8.93;51.12;100381.44;4218959;28;20238;-67
2023/04/27 09:51:07;;;;;;;7.77;2.90;;;;;;;8.75;50.48;100383.97;4221569;28;20243;-67
2023/04/27 09:53:45;;;;;;;6.37;2.90;;;;;;;8.96;50.80;100381.16;4233973;28;20433;-67
2023/04/27 09:56:44;;;;;;;7.30;3.20;;;;;;;8.78;50.21;100391.75;4223524;28;20236;-66
2023/04/27 09:59:17;;;;;;;5.83;2.70;;;;;;;8.69;49.42;100379.97;4231142;28;20307;-68
2023/04/27 10:01:48;;;;;;;6.27;2.40;;;;;;;8.84;49.60;100389.38;4240868;28;20230;-67
2023/04/27 10:04:33;;;;;;;5.37;2.30;;;;;;;8.82;48.56;100385.13;4221322;28;20237;-67
2023/04/27 10:07:01;;;;;;;8.87;2.90;;;;;;;8.75;49.09;100395.59;4239065;28;20301;-67
2023/04/27 10:09:41;;;;;;;6.33;2.00;;;;;;;8.76;48.42;100394.59;4230965;28;20285;-67
2023/04/27 10:12:19;;;;;;;9.20;2.80;;;;;;;8.97;47.81;100391.84;4233676;28;20238;-67
2023/04/27 10:14:53;;;;;;;6.17;2.80;;;;;;;9.00;48.13;100396.09;4234465;28;21233;-67
2023/04/27 10:17:38;;;;;;;5.13;2.13;;;;;;;8.96;47.38;100397.34;4235234;28;20311;-66
2023/04/27 10:20:08;;;;;;;10.73;2.10;;;;;;;8.76;49.33;100393.78;4252019;28;20233;-69
2023/04/27 10:22:42;;;;;;;6.97;2.07;;;;;;;8.95;49.08;100399.22;4342874;28;20228;-68
2023/04/27 10:25:25;;;;;;;6.77;2.07;;;;;;;9.23;47.77;100393.16;4230053;28;20239;-67
2023/04/27 10:27:53;;;;;;;5.90;2.03;;;;;;;8.90;48.41;100396.09;4259571;28;20250;-66
2023/04/27 10:30:22;;;;;;;6.47;2.20;;;;;;;8.94;50.24;100388.56;4238339;28;20235;-68
2023/04/27 10:32:56;;;;;;;7.83;2.90;;;;;;;9.03;50.93;100385.88;4233274;28;22239;-67
2023/04/27 10:35:38;;;;;;;11.87;3.33;;;;;;;9.36;50.56;100386.47;4234229;28;20242;-67
2023/04/27 10:38:20;;;;;;;13.27;3.77;;;;;;;9.48;49.58;100387.19;4249187;28;20584;-66
2023/04/27 10:41:01;;;;;;;9.63;3.20;;;;;;;9.57;50.75;100392.75;4246295;28;21091;-67
2023/04/27 10:43:29;;;;;;;14.47;3.80;;;;;;;9.89;51.04;100381.66;4242467;28;20247;-68
2023/04/27 10:46:12;;;;;;;10.20;3.13;;;;;;;9.79;50.12;100389.75;4220198;28;20836;-66
2023/04/27 10:48:43;;;;;;;8.13;2.70;;;;;;;9.73;47.82;100386.78;4234327;28;21263;-55
2023/04/27 10:51:14;;;;;;;5.93;2.90;;;;;;;9.54;47.74;100395.75;4215788;28;20234;-68
2023/04/27 10:53:41;;;;;;;6.70;2.70;;;;;;;9.58;47.88;100389.06;4214464;28;21104;-70
2023/04/27 10:56:07;;;;;;;7.67;3.40;;;;;;;9.33;50.06;100396.72;4234452;28;20241;-76
2023/04/27 10:58:36;;;;;;;8.00;3.73;;;;;;;9.28;50.54;100399.00;4235709;28;20512;-69
2023/04/27 11:01:06;;;;;;;10.83;3.67;;;;;;;9.12;52.90;100399.53;4215655;28;20255;-65
2023/04/27 11:03:33;;;;;;;7.40;3.37;;;;;;;9.27;52.01;100411.66;4226744;28;21087;-53
2023/04/27 11:06:03;;;;;;;10.57;3.87;;;;;;;9.33;51.40;100410.22;4234498;28;21165;-65
2023/04/27 11:08:32;;;;;;;13.13;3.80;;;;;;;9.08;51.67;100423.28;4238161;28;20272;-67
2023/04/27 11:11:00;;;;;;;8.97;3.70;;;;;;;8.85;52.28;100411.81;4237065;28;20378;-66
2023/04/27 11:13:27;;;;;;;7.87;3.43;;;;;;;8.75;51.67;100410.94;4207015;28;20233;-63
2023/04/27 11:15:56;;;;;;;7.93;3.00;;;;;;;8.73;51.62;100408.38;4224425;28;21053;-67
2023/04/27 11:18:24;;;;;;;7.23;3.23;;;;;;;8.70;50.35;100403.25;4227696;28;20304;-63
2023/04/27 11:20:53;;;;;;;5.50;2.80;;;;;;;8.80;50.67;100417.63;4225245;28;20255;-64
2023/04/27 11:23:35;;;;;;;7.93;2.83;;;;;;;8.93;49.87;100413.84;4218666;28;20224;-65
2023/04/27 11:26:20;;;;;;;8.33;3.17;;;;;;;9.10;49.21;100412.31;4239884;28;22607;-63